createdAt,value
2019-03-20T00:00:54.766Z,36.29
2019-03-20T00:01:55.007Z,36.28
2019-03-20T00:02:55.182Z,36.25
2019-03-20T00:03:54.818Z,36.27
2019-03-20T00:04:54.771Z,36.22
2019-03-20T00:05:54.873Z,36.3
2019-03-20T00:06:54.817Z,36.28
2019-03-20T00:07:54.895Z,36.31
2019-03-20T00:08:54.756Z,36.3
2019-03-20T00:09:55.019Z,36.28
2019-03-20T00:10:54.972Z,36.3
2019-03-20T00:11:55.006Z,36.3
2019-03-20T00:12:54.719Z,36.35
2019-03-20T00:13:54.988Z,36.35
2019-03-20T00:14:55.012Z,36.36
2019-03-20T00:15:55.040Z,36.3
2019-03-20T00:16:54.711Z,36.36
2019-03-20T00:17:54.684Z,36.39
2019-03-20T00:18:54.752Z,36.32
2019-03-20T00:19:54.716Z,36.34
2019-03-20T00:20:54.722Z,36.33
2019-03-20T00:21:54.673Z,36.32
2019-03-20T00:22:54.744Z,36.34
2019-03-20T00:23:55.109Z,36.33
2019-03-20T00:24:54.781Z,36.38
2019-03-20T00:25:54.797Z,36.38
2019-03-20T00:26:54.757Z,36.4
2019-03-20T00:27:54.806Z,36.35
2019-03-20T00:28:54.870Z,36.37
2019-03-20T00:29:54.817Z,36.31
2019-03-20T00:30:54.890Z,36.35
2019-03-20T00:31:54.997Z,36.35
2019-03-20T00:32:55.055Z,36.34
2019-03-20T00:33:54.885Z,36.37
2019-03-20T00:35:01.517Z,36.35
2019-03-20T00:35:54.731Z,36.4
2019-03-20T00:36:54.721Z,36.35
2019-03-20T00:37:54.802Z,36.37
2019-03-20T00:38:54.879Z,36.33
2019-03-20T00:39:54.797Z,36.37
2019-03-20T00:40:55.040Z,36.38
2019-03-20T00:41:54.777Z,36.36
2019-03-20T00:42:54.799Z,36.37
2019-03-20T00:43:54.811Z,36.4
2019-03-20T00:44:54.885Z,36.36
2019-03-20T00:45:54.939Z,36.37
2019-03-20T00:46:54.915Z,36.39
2019-03-20T00:47:54.956Z,36.4
2019-03-20T00:48:54.883Z,36.43
2019-03-20T00:49:54.993Z,36.4
2019-03-20T00:50:54.915Z,36.39
2019-03-20T00:51:55.012Z,36.4
2019-03-20T00:52:54.688Z,36.38
2019-03-20T00:53:54.678Z,36.42
2019-03-20T00:54:54.667Z,36.42
2019-03-20T00:55:54.775Z,36.45
2019-03-20T00:56:54.709Z,36.47
2019-03-20T00:57:54.758Z,36.47
2019-03-20T00:58:54.739Z,36.42
2019-03-20T00:59:54.727Z,36.45
2019-03-20T01:00:54.804Z,36.43
2019-03-20T01:01:54.950Z,36.43
2019-03-20T01:02:54.931Z,36.47
2019-03-20T01:03:54.655Z,36.44
2019-03-20T01:04:54.836Z,36.46
2019-03-20T01:05:54.847Z,36.49
2019-03-20T01:06:54.894Z,36.46
2019-03-20T01:07:54.891Z,36.44
2019-03-20T01:08:54.953Z,36.5
2019-03-20T01:09:54.959Z,36.45
2019-03-20T01:10:54.681Z,36.47
2019-03-20T01:11:54.689Z,36.5
2019-03-20T01:12:54.722Z,36.45
2019-03-20T01:13:54.710Z,36.47
2019-03-20T01:14:54.734Z,36.46
2019-03-20T01:15:54.917Z,36.47
2019-03-20T01:16:54.735Z,36.53
2019-03-20T01:17:54.756Z,36.48
2019-03-20T01:18:54.779Z,36.47
2019-03-20T01:19:54.799Z,36.47
2019-03-20T01:20:54.923Z,36.48
2019-03-20T01:21:54.838Z,36.46
2019-03-20T01:22:54.851Z,36.44
2019-03-20T01:23:54.844Z,36.51
2019-03-20T01:24:54.915Z,36.46
2019-03-20T01:25:54.892Z,36.5
2019-03-20T01:26:54.892Z,36.51
2019-03-20T01:27:55.106Z,36.51
2019-03-20T01:28:54.651Z,36.48
2019-03-20T01:29:54.657Z,36.5
2019-03-20T01:30:54.743Z,36.54
2019-03-20T01:31:54.838Z,36.52
2019-03-20T01:32:54.674Z,36.53
2019-03-20T01:33:55.130Z,36.51
2019-03-20T01:34:54.707Z,36.53
2019-03-20T01:35:54.718Z,36.51
2019-03-20T01:36:54.870Z,36.51
2019-03-20T01:37:55.919Z,36.46
2019-03-20T01:38:54.879Z,36.48
2019-03-20T01:39:54.900Z,36.44
2019-03-20T01:40:54.811Z,36.53
2019-03-20T01:41:54.842Z,36.5
2019-03-20T01:42:54.838Z,36.48
2019-03-20T01:43:54.840Z,36.5
2019-03-20T01:44:54.849Z,36.53
2019-03-20T01:45:54.692Z,36.52
2019-03-20T01:46:54.704Z,36.52
2019-03-20T01:47:54.689Z,36.51
2019-03-20T01:48:54.725Z,36.51
2019-03-20T01:49:54.824Z,36.53
2019-03-20T01:50:54.863Z,36.52
2019-03-20T01:51:54.742Z,36.53
2019-03-20T01:52:54.790Z,36.49
2019-03-20T01:53:54.914Z,36.53
2019-03-20T01:54:54.805Z,36.53
2019-03-20T01:55:54.887Z,36.55
2019-03-20T01:56:54.805Z,36.51
2019-03-20T01:57:54.927Z,36.56
2019-03-20T01:58:54.853Z,36.56
2019-03-20T01:59:54.957Z,36.56
2019-03-20T02:00:54.893Z,36.58
2019-03-20T02:01:54.873Z,36.54
2019-03-20T02:02:54.621Z,36.54
2019-03-20T02:03:54.655Z,36.52
2019-03-20T02:04:54.647Z,36.53
2019-03-20T02:05:54.660Z,36.53
2019-03-20T02:06:54.725Z,36.54
2019-03-20T04:06:54.715Z,36.65
2019-03-20T04:07:54.635Z,36.64
2019-03-20T04:08:54.697Z,36.67
2019-03-20T04:09:54.681Z,36.66
2019-03-20T04:11:54.703Z,36.66
2019-03-20T04:12:54.727Z,36.64
2019-03-20T04:13:54.710Z,36.66
2019-03-20T04:14:54.646Z,36.66
2019-03-20T04:16:54.866Z,36.66
2019-03-20T04:18:54.887Z,36.66
2019-03-20T04:20:54.821Z,36.62
2019-03-20T04:21:55.130Z,36.66
2019-03-20T04:22:54.846Z,36.62
2019-03-20T04:23:54.585Z,36.65
2019-03-20T04:25:54.583Z,36.63
2019-03-20T04:26:54.591Z,36.66
2019-03-20T04:28:54.653Z,36.62
2019-03-20T04:30:54.684Z,36.66
2019-03-20T04:31:54.661Z,36.67
2019-03-20T04:32:54.688Z,36.64
2019-03-20T04:35:54.758Z,36.67
2019-03-20T04:36:54.758Z,36.63
2019-03-20T04:37:54.792Z,36.63
2019-03-20T04:40:54.820Z,36.61
2019-03-20T04:41:54.615Z,36.58
2019-03-20T04:42:54.644Z,36.59
2019-03-20T04:43:54.702Z,36.59
2019-03-20T04:45:54.747Z,36.64
2019-03-20T04:47:54.781Z,36.62
2019-03-20T04:48:54.707Z,36.64
2019-03-20T04:49:54.702Z,36.64
2019-03-20T04:50:54.736Z,36.59
2019-03-20T04:52:54.749Z,36.65
2019-03-20T04:53:54.764Z,36.69
2019-03-20T04:54:54.772Z,36.65
2019-03-20T04:55:54.891Z,36.67
2019-03-20T04:58:54.574Z,36.79
2019-03-20T04:59:54.582Z,36.84
2019-03-20T05:00:54.677Z,36.8
2019-03-20T05:01:54.601Z,36.79
2019-03-20T05:03:54.604Z,36.81
2019-03-20T05:05:54.770Z,36.78
2019-03-20T05:06:59.501Z,36.73
2019-03-20T05:07:54.668Z,36.69
2019-03-20T05:08:55.021Z,36.72
2019-03-20T05:10:54.736Z,36.71
2019-03-20T05:11:54.741Z,36.71
2019-03-20T05:12:54.748Z,36.69
2019-03-20T05:14:54.784Z,36.68
2019-03-20T05:16:54.585Z,36.72
2019-03-20T05:17:54.624Z,36.71
2019-03-20T05:18:54.620Z,36.69
2019-03-20T05:20:54.656Z,36.75
2019-03-20T05:21:54.731Z,36.73
2019-03-20T05:22:54.688Z,36.7
2019-03-20T05:23:54.666Z,36.75
2019-03-20T05:25:54.731Z,36.76
2019-03-20T05:26:54.826Z,36.76
2019-03-20T05:27:55.195Z,36.78
2019-03-20T05:28:54.747Z,36.76
2019-03-20T05:30:54.848Z,36.78
2019-03-20T05:31:54.886Z,36.8
2019-03-20T05:34:54.575Z,36.77
2019-03-20T05:35:54.609Z,36.81
2019-03-20T05:37:54.561Z,36.84
2019-03-20T05:38:54.587Z,36.82
2019-03-20T05:39:54.637Z,36.82
2019-03-20T05:40:54.638Z,36.8
2019-03-20T05:42:54.658Z,36.8
2019-03-20T05:44:54.777Z,36.76
2019-03-20T05:45:54.705Z,36.82
2019-03-20T05:46:54.738Z,36.75
2019-03-20T05:47:54.886Z,36.76
2019-03-20T05:49:54.719Z,36.79
2019-03-20T05:50:54.873Z,36.78
2019-03-20T05:51:54.834Z,36.79
2019-03-20T05:53:54.659Z,36.79
2019-03-20T05:54:54.591Z,36.77
2019-03-20T05:55:54.588Z,36.8
2019-03-20T05:56:54.628Z,36.78
2019-03-20T05:59:54.723Z,36.82
2019-03-20T06:00:54.685Z,36.72
2019-03-20T06:03:54.716Z,36.71
2019-03-20T06:04:54.713Z,36.74
2019-03-20T06:05:54.727Z,36.73
2019-03-20T06:06:54.764Z,36.75
2019-03-20T06:09:54.770Z,36.74
2019-03-20T06:10:55.065Z,36.73
2019-03-20T06:12:54.508Z,36.7
2019-03-20T06:13:54.605Z,36.7
2019-03-20T06:15:54.553Z,36.68
2019-03-20T06:16:54.822Z,36.63
2019-03-20T06:17:54.568Z,36.68
2019-03-20T06:18:54.631Z,36.68
2019-03-20T06:20:54.657Z,36.68
2019-03-20T06:21:54.829Z,36.67
2019-03-20T06:22:54.681Z,36.62
2019-03-20T06:23:55.811Z,36.61
2019-03-20T06:25:54.846Z,36.62
2019-03-20T06:26:54.795Z,36.61
2019-03-20T06:28:54.734Z,36.62
2019-03-20T06:29:54.766Z,36.61
2019-03-20T06:30:54.812Z,36.63
2019-03-20T06:32:54.696Z,36.63
2019-03-20T06:33:54.694Z,36.62
2019-03-20T06:34:54.619Z,36.56
2019-03-20T06:35:54.597Z,36.54
2019-03-20T06:37:54.675Z,36.54
2019-03-20T06:38:54.738Z,36.59
2019-03-20T06:39:54.672Z,36.58
2019-03-20T06:40:54.678Z,36.59
2019-03-20T06:42:55.600Z,36.57
2019-03-20T06:43:54.699Z,36.54
2019-03-20T06:44:54.692Z,35.67
2019-03-20T06:45:54.812Z,36.14
2019-03-20T06:47:54.745Z,33.18
2019-03-20T06:48:54.867Z,32.65
2019-03-20T06:49:54.777Z,33.05
2019-03-20T06:50:55.637Z,33.24
2019-03-20T06:52:54.546Z,33.43
2019-03-20T06:54:54.933Z,33.79
2019-03-20T06:55:54.593Z,33.95
2019-03-20T06:56:54.593Z,34.16
2019-03-20T06:58:54.697Z,34.51
2019-03-20T06:59:54.624Z,34.65
2019-03-20T07:00:54.674Z,34.76
2019-03-20T07:01:54.652Z,34.84
2019-03-20T07:04:54.752Z,35.09
2019-03-20T07:05:54.698Z,35.04
2019-03-20T07:06:54.719Z,35.08
2019-03-20T07:07:54.743Z,35.05
2019-03-20T07:10:54.523Z,35.17
2019-03-20T07:12:54.645Z,35.22
2019-03-20T07:13:54.585Z,35.24
2019-03-20T07:14:54.626Z,35.25
2019-03-20T07:15:54.664Z,35.3
2019-03-20T07:18:54.660Z,35.36
2019-03-20T07:19:54.644Z,35.35
2019-03-20T07:20:54.697Z,35.39
2019-03-20T07:21:54.672Z,35.36
2019-03-20T07:23:54.776Z,35.4
2019-03-20T07:24:54.817Z,35.4
2019-03-20T07:25:55.000Z,35.41
2019-03-20T07:26:54.865Z,35.43
2019-03-20T07:28:54.544Z,35.46
2019-03-20T07:30:54.533Z,35.47
2019-03-20T07:31:55.683Z,35.49
2019-03-20T07:32:54.723Z,35.48
2019-03-20T07:33:54.576Z,35.53
2019-03-20T07:35:54.590Z,35.54
2019-03-20T07:36:54.755Z,35.57
2019-03-20T07:37:56.596Z,35.6
2019-03-20T07:39:54.830Z,35.58
2019-03-20T07:40:54.747Z,35.63
2019-03-20T07:41:54.659Z,35.62
2019-03-20T07:44:55.014Z,35.67
2019-03-20T07:45:54.738Z,35.63
2019-03-20T07:46:54.878Z,35.65
2019-03-20T07:47:54.783Z,35.68
2019-03-20T07:49:54.627Z,35.68
2019-03-20T07:50:54.594Z,35.66
2019-03-20T07:51:54.578Z,35.69
2019-03-20T07:52:54.573Z,35.72
2019-03-20T07:54:54.984Z,35.69
2019-03-20T07:55:54.641Z,35.71
2019-03-20T07:56:54.729Z,35.71
2019-03-20T07:57:54.731Z,35.72
2019-03-20T07:59:54.733Z,35.72
2019-03-20T08:00:54.717Z,35.72
2019-03-20T08:02:54.691Z,35.76
2019-03-20T08:03:54.723Z,35.75
2019-03-20T08:04:54.744Z,35.78
2019-03-20T08:05:54.763Z,35.75
2019-03-20T08:07:54.468Z,35.77
2019-03-20T08:08:54.488Z,35.8
2019-03-20T08:09:54.521Z,35.78
2019-03-20T08:10:54.545Z,35.8
2019-03-20T08:12:54.547Z,35.84
2019-03-20T08:14:54.654Z,35.8
2019-03-20T08:15:54.681Z,35.85
2019-03-20T08:16:54.763Z,35.83
2019-03-20T08:17:54.576Z,35.85
2019-03-20T08:19:54.638Z,35.81
2019-03-20T08:20:54.791Z,35.8
2019-03-20T08:21:54.639Z,35.87
2019-03-20T08:22:54.671Z,35.9
2019-03-20T08:24:56.020Z,35.88
2019-03-20T08:25:54.854Z,35.9
2019-03-20T08:26:54.825Z,35.88
2019-03-20T08:28:54.741Z,35.93
2019-03-20T08:29:54.542Z,35.91
2019-03-20T08:30:54.609Z,35.92
2019-03-20T08:31:54.564Z,35.92
2019-03-20T08:34:54.697Z,35.94
2019-03-20T08:35:54.583Z,35.94
2019-03-20T08:36:54.889Z,35.92
2019-03-20T08:37:54.620Z,35.92
2019-03-20T08:40:54.667Z,35.96
2019-03-20T08:41:54.682Z,35.96
2019-03-20T08:42:55.047Z,35.95
2019-03-20T08:43:54.712Z,35.93
2019-03-20T08:45:54.828Z,36
2019-03-20T08:46:54.708Z,35.97
2019-03-20T08:47:54.850Z,35.96
2019-03-20T08:48:54.489Z,35.95
2019-03-20T08:50:54.585Z,36.11
2019-03-20T08:51:54.604Z,36.14
2019-03-20T08:53:56.533Z,36.59
2019-03-20T08:54:54.568Z,36.39
2019-03-20T08:55:54.537Z,36.45
2019-03-20T08:56:54.566Z,36.76
2019-03-20T08:58:54.754Z,37.03
2019-03-20T08:59:54.662Z,37.01
2019-03-20T09:00:54.641Z,36.96
2019-03-20T09:02:55.394Z,37.04
2019-03-20T09:04:54.841Z,37.09
2019-03-20T09:05:54.729Z,37.08
2019-03-20T09:06:54.720Z,37.18
2019-03-20T09:07:54.873Z,37.13
2019-03-20T09:09:54.501Z,37.18
2019-03-20T09:10:54.543Z,37.19
2019-03-20T09:11:54.558Z,37.2
2019-03-20T09:12:54.641Z,37.2
2019-03-20T09:14:54.662Z,37.2
2019-03-20T09:15:54.607Z,37.16
2019-03-20T09:16:54.724Z,37.16
2019-03-20T09:17:54.635Z,37.06
2019-03-20T09:19:54.644Z,37.07
2019-03-20T09:20:54.663Z,37.16
2019-03-20T09:21:54.732Z,37.07
2019-03-20T09:22:55.145Z,37.11
2019-03-20T09:24:54.737Z,37.15
2019-03-20T09:25:54.721Z,37.28
2019-03-20T09:27:54.468Z,37.16
2019-03-20T09:28:54.554Z,37.1
2019-03-20T09:29:54.504Z,37.1
2019-03-20T09:31:54.541Z,36.94
2019-03-20T09:32:54.525Z,36.91
2019-03-20T09:33:54.837Z,37.11
2019-03-20T09:34:54.997Z,37.04
2019-03-20T09:36:54.580Z,37.31
2019-03-20T09:37:54.686Z,37.35
2019-03-20T09:38:54.700Z,37
2019-03-20T09:39:54.679Z,36.89
2019-03-20T09:41:54.670Z,36.81
2019-03-20T09:42:54.802Z,36.9
2019-03-20T09:43:55.064Z,36.86
2019-03-20T09:44:54.678Z,36.81
2019-03-20T09:46:54.711Z,36.76
2019-03-20T09:48:54.581Z,36.93
2019-03-20T09:50:54.646Z,37
2019-03-20T09:51:54.869Z,37.04
2019-03-20T09:52:54.618Z,37.03
2019-03-20T09:53:54.562Z,37.08
2019-03-20T09:55:54.575Z,37.05
2019-03-20T09:56:54.671Z,37.09
2019-03-20T09:57:54.620Z,37.13
2019-03-20T09:59:54.643Z,37.18
2019-03-20T10:00:54.655Z,37.13
2019-03-20T10:01:54.794Z,37.12
2019-03-20T10:02:54.773Z,37.36
2019-03-20T10:04:54.796Z,37.18
2019-03-20T10:05:54.835Z,37.09
2019-03-20T10:07:54.510Z,37.07
2019-03-20T10:08:54.819Z,37.08
2019-03-20T10:09:54.500Z,37.08
2019-03-20T10:10:54.511Z,37.16
2019-03-20T10:12:54.696Z,37.32
2019-03-20T10:13:54.546Z,37.28
2019-03-20T10:15:54.572Z,37.37
2019-03-20T10:16:54.594Z,37.42
2019-03-20T10:17:54.619Z,37.49
2019-03-20T10:20:54.739Z,37.5
2019-03-20T10:21:54.721Z,37.81
2019-03-20T10:22:54.713Z,36.78
2019-03-20T10:23:54.740Z,36.88
2019-03-20T10:25:54.711Z,36.97
2019-03-20T10:26:54.459Z,36.99
2019-03-20T10:27:54.984Z,36.99
2019-03-20T10:28:54.583Z,37
2019-03-20T10:30:54.616Z,36.97
2019-03-20T10:31:54.597Z,36.92
2019-03-20T10:32:54.563Z,36.91
2019-03-20T10:34:54.617Z,36.88
2019-03-20T10:36:54.634Z,36.89
2019-03-20T10:37:54.720Z,36.84
2019-03-20T10:39:06.868Z,36.81
2019-03-20T10:39:54.667Z,36.78
2019-03-20T10:42:54.799Z,36.75
2019-03-20T10:43:54.451Z,36.74
2019-03-20T10:44:54.451Z,36.69
2019-03-20T10:46:54.494Z,36.5
2019-03-20T10:48:56.619Z,36.65
2019-03-20T10:49:54.619Z,36.72
2019-03-20T10:50:54.557Z,36.69
2019-03-20T10:51:54.669Z,36.74
2019-03-20T10:53:54.585Z,36.78
2019-03-20T10:54:54.590Z,36.79
2019-03-20T10:55:54.763Z,36.75
2019-03-20T10:56:54.694Z,36.75
2019-03-20T10:58:54.656Z,36.82
2019-03-20T10:59:54.683Z,36.78
2019-03-20T11:00:54.681Z,36.8
2019-03-20T11:02:54.496Z,36.77
2019-03-20T11:03:54.502Z,36.79
2019-03-20T11:04:54.482Z,36.79
2019-03-20T11:05:54.536Z,36.83
2019-03-20T11:07:54.639Z,36.79
2019-03-20T11:09:54.651Z,36.76
2019-03-20T11:10:54.753Z,36.8
2019-03-20T11:11:54.639Z,36.74
2019-03-20T11:12:54.650Z,36.8
2019-03-20T11:14:54.760Z,36.82
2019-03-20T11:15:54.725Z,36.78
2019-03-20T11:16:54.689Z,36.79
2019-03-20T11:17:54.705Z,36.81
2019-03-20T11:19:56.474Z,36.82
2019-03-20T11:20:54.457Z,36.81
2019-03-20T11:22:54.490Z,36.77
2019-03-20T11:23:54.520Z,36.8
2019-03-20T11:24:54.490Z,36.83
2019-03-20T11:25:54.677Z,36.82
2019-03-20T11:27:54.567Z,36.79
2019-03-20T11:28:54.541Z,36.93
2019-03-20T11:29:54.559Z,37.31
2019-03-20T11:30:54.579Z,37.42
2019-03-20T11:32:54.979Z,37.84
2019-03-20T11:33:54.730Z,37.79
2019-03-20T11:34:54.643Z,37.89
2019-03-20T11:35:54.807Z,37.9
2019-03-20T11:37:54.439Z,37.91
2019-03-20T11:38:54.534Z,37.91
2019-03-20T11:39:54.608Z,37.76
2019-03-20T11:40:54.499Z,37.23
2019-03-20T11:42:54.528Z,37.29
2019-03-20T11:43:54.532Z,37.17
2019-03-20T11:44:54.579Z,37.15
2019-03-20T11:45:54.694Z,37.11
2019-03-20T11:47:54.585Z,37.55
2019-03-20T11:48:54.601Z,37.41
2019-03-20T11:49:54.660Z,37.57
2019-03-20T11:50:54.630Z,37.58
2019-03-20T11:52:58.215Z,37.66
2019-03-20T11:53:54.718Z,37.46
2019-03-20T11:55:54.446Z,37.53
2019-03-20T11:56:54.479Z,37.44
2019-03-20T11:57:54.476Z,37.3
2019-03-20T11:58:54.644Z,37.26
2019-03-20T12:00:54.540Z,37.38
2019-03-20T12:01:54.508Z,37.17
2019-03-20T12:02:54.521Z,37.11
2019-03-20T12:03:54.714Z,36.96
2019-03-20T12:05:54.584Z,37.09
2019-03-20T12:06:54.594Z,36.5
2019-03-20T12:08:54.705Z,36.68
2019-03-20T12:10:54.663Z,36.63
2019-03-20T12:11:54.701Z,36.63
2019-03-20T12:12:54.479Z,36.66
2019-03-20T12:13:54.527Z,36.68
2019-03-20T12:15:54.601Z,36.83
2019-03-20T12:16:54.495Z,36.85
2019-03-20T12:17:54.492Z,36.9
2019-03-20T12:18:54.525Z,36.92
2019-03-20T12:20:54.535Z,37.04
2019-03-20T12:21:54.580Z,36.99
2019-03-20T12:22:54.579Z,37.02
2019-03-20T12:23:54.575Z,37.07
2019-03-20T12:25:54.619Z,36.82
2019-03-20T12:26:54.637Z,36.83
2019-03-20T12:28:54.778Z,36.76
2019-03-20T12:29:54.401Z,36.79
2019-03-20T12:31:54.426Z,36.75
2019-03-20T12:33:54.480Z,36.76
2019-03-20T12:35:54.495Z,36.72
2019-03-20T12:36:56.816Z,36.72
2019-03-20T12:37:54.887Z,36.77
2019-03-20T12:38:54.543Z,36.76
2019-03-20T12:40:54.542Z,36.8
2019-03-20T12:41:54.571Z,36.8
2019-03-20T12:42:54.598Z,36.83
2019-03-20T12:43:54.612Z,36.76
2019-03-20T12:46:54.654Z,36.81
2019-03-20T12:47:54.459Z,36.82
2019-03-20T12:48:54.456Z,36.81
2019-03-20T12:49:54.603Z,36.82
2019-03-20T12:51:54.580Z,36.84
2019-03-20T12:52:54.494Z,36.82
2019-03-20T12:54:54.608Z,36.85
2019-03-20T12:55:54.630Z,36.78
2019-03-20T12:56:54.561Z,36.82
2019-03-20T12:57:54.582Z,36.72
2019-03-20T12:59:54.582Z,36.84
2019-03-20T13:00:54.830Z,36.83
2019-03-20T13:01:54.720Z,36.82
2019-03-20T13:03:54.392Z,36.83
2019-03-20T13:04:54.399Z,36.82
2019-03-20T13:05:54.509Z,36.83
2019-03-20T13:06:54.451Z,36.83
2019-03-20T13:08:54.506Z,36.86
2019-03-20T13:10:03.798Z,36.87
2019-03-20T13:10:54.472Z,36.86
2019-03-20T13:11:54.564Z,36.87
2019-03-20T13:13:54.546Z,36.8
2019-03-20T13:14:54.563Z,36.79
2019-03-20T13:15:54.543Z,36.79
2019-03-20T13:17:54.584Z,36.78
2019-03-20T13:18:54.584Z,36.79
2019-03-20T13:19:54.616Z,36.79
2019-03-20T13:20:54.593Z,36.77
2019-03-20T13:22:54.408Z,36.81
2019-03-20T13:23:54.418Z,36.79
2019-03-20T13:24:54.466Z,36.8
2019-03-20T13:26:54.490Z,36.8
2019-03-20T13:27:54.476Z,36.8
2019-03-20T13:28:54.619Z,36.81
2019-03-20T13:29:54.673Z,36.84
2019-03-20T13:32:54.701Z,36.86
2019-03-20T13:33:54.567Z,36.77
2019-03-20T13:34:54.744Z,36.98
2019-03-20T13:35:54.621Z,37.18
2019-03-20T13:37:54.738Z,37.16
2019-03-20T13:38:56.741Z,37.25
2019-03-20T13:39:54.382Z,37.33
2019-03-20T13:40:54.555Z,37.38
2019-03-20T13:42:54.553Z,37.45
2019-03-20T13:43:54.437Z,37.47
2019-03-20T13:44:54.432Z,37.42
2019-03-20T13:45:54.475Z,37.47
2019-03-20T13:48:54.584Z,37.54
2019-03-20T13:49:54.501Z,37.57
2019-03-20T13:51:54.565Z,37.61
2019-03-20T13:53:54.610Z,37.57
2019-03-20T13:54:54.594Z,37.59
2019-03-20T13:55:54.615Z,37.54
2019-03-20T13:56:54.624Z,37.6
2019-03-20T13:58:54.431Z,37.73
2019-03-20T13:59:54.453Z,37.68
2019-03-20T14:00:54.465Z,37.56
2019-03-20T14:01:54.482Z,37.64
2019-03-20T14:03:54.586Z,37.75
2019-03-20T14:04:54.535Z,37.66
2019-03-20T14:05:54.538Z,37.53
2019-03-20T14:06:54.541Z,37.79
2019-03-20T14:08:54.631Z,37.56
2019-03-20T14:09:54.577Z,37.75
2019-03-20T14:10:54.646Z,37.75
2019-03-20T14:12:54.654Z,37.79
2019-03-20T14:13:54.616Z,37.69
2019-03-20T14:14:54.639Z,37.71
2019-03-20T14:17:54.439Z,37.81
2019-03-20T14:18:54.426Z,37.68
2019-03-20T14:19:54.512Z,37.87
2019-03-20T14:20:54.605Z,37.74
2019-03-20T14:22:54.506Z,37.96
2019-03-20T14:23:54.675Z,37.77
2019-03-20T14:24:54.533Z,37.83
2019-03-20T14:25:54.956Z,37.72
2019-03-20T14:27:54.566Z,37.55
2019-03-20T14:28:54.549Z,37.5
2019-03-20T14:30:54.576Z,36.8
2019-03-20T14:31:54.598Z,37.14
2019-03-20T14:32:54.405Z,37.22
2019-03-20T14:33:54.413Z,37.37
2019-03-20T14:36:54.464Z,37.65
2019-03-20T14:37:55.172Z,37.6
2019-03-20T14:38:54.588Z,37.66
2019-03-20T14:39:54.494Z,37.76
2019-03-20T14:41:54.500Z,37.65
2019-03-20T14:42:54.564Z,37.71
2019-03-20T14:43:54.609Z,37.78
2019-03-20T14:44:54.691Z,37.84
2019-03-20T14:46:54.899Z,37.86
2019-03-20T14:48:54.618Z,37.74
2019-03-20T14:49:54.626Z,37.7
2019-03-20T14:52:54.498Z,37.68
2019-03-20T14:53:54.396Z,37.63
2019-03-20T14:55:54.445Z,37.68
2019-03-20T14:56:54.416Z,37.73
2019-03-20T14:57:54.457Z,37.71
2019-03-20T14:58:54.498Z,37.83
2019-03-20T15:00:54.513Z,37.7
2019-03-20T15:02:54.646Z,37.77
2019-03-20T15:03:54.546Z,37.76
2019-03-20T15:04:54.544Z,37.57
2019-03-20T15:05:54.599Z,37.67
2019-03-20T15:07:54.595Z,37.65
2019-03-20T15:08:54.484Z,37.65
2019-03-20T15:09:54.415Z,37.71
2019-03-20T15:10:54.428Z,37.63
2019-03-20T15:13:54.570Z,37.63
2019-03-20T15:14:54.578Z,37.65
2019-03-20T15:15:54.521Z,37.73
2019-03-20T15:16:54.581Z,37.66
2019-03-20T15:18:54.634Z,37.71
2019-03-20T15:19:54.569Z,37.67
2019-03-20T15:21:54.563Z,37.67
2019-03-20T15:22:54.604Z,37.69
2019-03-20T15:23:54.602Z,37.62
2019-03-20T15:24:54.638Z,37.71
2019-03-20T15:26:54.380Z,37.62
2019-03-20T15:27:54.494Z,37.62
2019-03-20T15:28:54.511Z,37.65
2019-03-20T15:29:54.560Z,37.66
2019-03-20T15:31:54.600Z,37.63
2019-03-20T15:32:54.426Z,37.61
2019-03-20T15:33:54.460Z,37.66
2019-03-20T15:35:54.490Z,37.72
2019-03-20T15:36:54.491Z,37.61
2019-03-20T15:37:54.601Z,37.67
2019-03-20T15:38:54.684Z,37.6
2019-03-20T15:40:56.618Z,37.65
2019-03-20T15:42:54.399Z,37.69
2019-03-20T15:44:02.837Z,37.7
2019-03-20T15:44:54.542Z,37.69
2019-03-20T15:45:54.442Z,37.67
2019-03-20T15:47:54.489Z,37.66
2019-03-20T15:48:54.567Z,37.71
2019-03-20T15:49:54.349Z,37.64
2019-03-20T15:50:54.504Z,37.66
2019-03-20T15:52:54.683Z,37.67
2019-03-20T15:53:54.540Z,37.68
2019-03-20T15:54:54.611Z,37.62
2019-03-20T15:57:54.327Z,37.7
2019-03-20T15:58:54.585Z,37.68
2019-03-20T15:59:54.360Z,37.66
2019-03-20T16:00:54.368Z,37.62
2019-03-20T16:03:54.337Z,37.64
2019-03-20T16:04:54.406Z,37.66
2019-03-20T16:05:54.437Z,37.66
2019-03-20T16:06:54.411Z,37.64
2019-03-20T16:08:57.060Z,37.67
2019-03-20T16:09:54.446Z,37.7
2019-03-20T16:11:54.334Z,37.7
2019-03-20T16:14:54.840Z,37.69
2019-03-20T16:15:54.558Z,37.62
2019-03-20T16:16:54.571Z,37.58
2019-03-20T16:17:54.580Z,37.63
2019-03-20T16:19:56.533Z,37.64
2019-03-20T16:20:54.417Z,37.66
2019-03-20T16:22:54.423Z,37.71
2019-03-20T16:23:54.441Z,37.7
2019-03-20T16:24:54.539Z,37.76
2019-03-20T16:25:54.471Z,37.68
2019-03-20T16:28:54.498Z,37.74
2019-03-20T16:29:54.525Z,37.73
2019-03-20T16:30:54.639Z,37.74
2019-03-20T16:31:54.686Z,37.7
2019-03-20T16:33:54.593Z,37.71
2019-03-20T16:34:54.576Z,37.69
2019-03-20T16:36:54.518Z,37.7
2019-03-20T16:37:54.497Z,37.64
2019-03-20T16:38:54.396Z,37.69
2019-03-20T16:39:54.393Z,37.71
2019-03-20T16:41:54.511Z,37.71
2019-03-20T16:42:54.426Z,37.72
2019-03-20T16:43:54.454Z,37.77
2019-03-20T16:45:54.465Z,37.8
2019-03-20T16:46:54.459Z,37.88
2019-03-20T16:49:54.576Z,38.08
2019-03-20T16:50:54.516Z,38.32
2019-03-20T16:51:54.610Z,38.27
2019-03-20T16:53:54.433Z,38.33
2019-03-20T16:54:54.392Z,38.11
2019-03-20T16:55:54.401Z,38.05
2019-03-20T16:57:54.690Z,37.92
2019-03-20T16:59:54.451Z,37.91
2019-03-20T17:01:54.434Z,37.85
2019-03-20T17:02:54.558Z,37.86
2019-03-20T17:03:54.496Z,37.9
2019-03-20T17:04:54.489Z,37.8
2019-03-20T17:06:54.568Z,37.8
2019-03-20T17:07:54.545Z,37.77
2019-03-20T17:09:54.580Z,37.81
2019-03-20T17:10:54.575Z,37.77
2019-03-20T17:11:54.504Z,37.73
2019-03-20T17:12:54.315Z,37.73
2019-03-20T17:16:54.366Z,37.73
2019-03-20T17:17:54.379Z,37.57
2019-03-20T17:18:55.671Z,37.67
2019-03-20T17:19:54.522Z,37.68
2019-03-20T17:22:54.455Z,37.58
2019-03-20T17:23:54.477Z,37.6
2019-03-20T17:24:54.573Z,37.63
2019-03-20T17:26:54.447Z,37.67
2019-03-20T17:27:54.679Z,36.95
2019-03-20T17:28:54.517Z,36.61
2019-03-20T17:29:54.539Z,36.56
2019-03-20T17:31:54.643Z,36.85
2019-03-20T17:32:54.349Z,36.88
2019-03-20T17:33:54.359Z,37.03
2019-03-20T17:34:54.491Z,37.09
2019-03-20T17:35:54.395Z,37.12
2019-03-20T17:37:54.382Z,37.2
2019-03-20T17:39:54.582Z,37.15
2019-03-20T17:40:54.744Z,37.16
2019-03-20T17:41:54.573Z,37.23
2019-03-20T17:42:54.488Z,37.21
2019-03-20T17:44:54.338Z,37.24
2019-03-20T17:45:54.583Z,37.28
2019-03-20T17:47:54.674Z,37.34
2019-03-20T17:49:54.701Z,37.33
2019-03-20T17:50:54.458Z,37.3
2019-03-20T17:51:54.369Z,37.29
2019-03-20T17:52:54.369Z,37.32
2019-03-20T17:54:54.385Z,37.36
2019-03-20T17:55:54.405Z,37.21
2019-03-20T17:56:54.444Z,37.21
2019-03-20T17:57:54.423Z,37.25
2019-03-20T17:59:54.451Z,37.25
2019-03-20T18:00:54.544Z,37.17
2019-03-20T18:01:54.480Z,37.32
2019-03-20T18:02:54.685Z,37.19
2019-03-20T18:04:54.634Z,37.35
2019-03-20T18:05:54.532Z,37.32
2019-03-20T18:06:54.471Z,37.42
2019-03-20T18:07:54.379Z,37.37
2019-03-20T18:09:54.407Z,37.37
2019-03-20T18:11:54.405Z,37.43
2019-03-20T18:12:54.489Z,37.42
2019-03-20T18:13:54.442Z,37.46
2019-03-20T18:14:54.467Z,37.07
2019-03-20T18:16:54.555Z,37.25
2019-03-20T18:17:54.314Z,37.22
2019-03-20T18:18:54.556Z,37.28
2019-03-20T18:19:54.571Z,37.24
2019-03-20T18:21:54.616Z,37.29
2019-03-20T18:22:54.537Z,37.28
2019-03-20T18:24:54.796Z,37.26
2019-03-20T18:25:54.484Z,37.2
2019-03-20T18:26:54.396Z,37.24
2019-03-20T18:28:54.382Z,37.15
2019-03-20T18:29:54.272Z,37.25
2019-03-20T18:30:54.502Z,37.25
2019-03-20T18:31:54.467Z,37.26
2019-03-20T18:33:54.410Z,37.35
2019-03-20T18:34:54.458Z,37.33
2019-03-20T18:35:54.551Z,37.31
2019-03-20T18:36:54.425Z,37.33
2019-03-20T18:37:54.528Z,37.31
2019-03-20T18:39:54.503Z,37.33
2019-03-20T18:40:54.514Z,37.37
2019-03-20T18:41:58.216Z,37.36
2019-03-20T18:42:54.401Z,37.31
2019-03-20T18:44:54.414Z,37.39
2019-03-20T18:45:54.395Z,37.34
2019-03-20T18:46:54.475Z,37.37
2019-03-20T18:47:54.445Z,37.37
2019-03-20T18:50:54.547Z,37.35
2019-03-20T18:51:54.452Z,37.35